createdAt,value
2023-04-29T00:01:05.246Z,15.50
2023-04-29T00:03:34.953Z,15.50
2023-04-29T00:06:04.391Z,15.50
2023-04-29T00:08:34.914Z,15.50
2023-04-29T00:11:04.457Z,15.50
2023-04-29T00:13:33.744Z,15.60
2023-04-29T00:16:02.977Z,15.50
2023-04-29T00:18:32.383Z,15.50
2023-04-29T00:21:02.196Z,15.50
2023-04-29T00:23:31.562Z,15.50
2023-04-29T00:26:02.254Z,15.50
2023-04-29T00:28:31.766Z,15.50
2023-04-29T00:31:00.959Z,15.60
2023-04-29T00:33:30.186Z,15.60
2023-04-29T00:35:59.342Z,15.60
2023-04-29T00:38:28.629Z,15.60
2023-04-29T00:40:58.379Z,15.60
2023-04-29T00:43:28.990Z,15.60
2023-04-29T00:45:58.177Z,15.60
2023-04-29T00:48:28.690Z,15.60
2023-04-29T00:50:57.923Z,15.60
2023-04-29T00:53:27.233Z,15.60
2023-04-29T00:55:57.300Z,15.60
2023-04-29T00:58:33.110Z,15.60
2023-04-29T01:01:03.632Z,15.60
2023-04-29T01:03:33.159Z,15.70
2023-04-29T01:06:11.828Z,15.70
2023-04-29T01:08:52.002Z,15.70
2023-04-29T01:11:24.603Z,15.70
2023-04-29T01:14:00.750Z,15.70
2023-04-29T01:16:36.099Z,15.70
2023-04-29T01:19:18.968Z,15.80
2023-04-29T01:21:49.940Z,15.80
2023-04-29T01:24:20.626Z,15.80
2023-04-29T01:26:57.632Z,15.80
2023-04-29T01:29:57.258Z,15.80
2023-04-29T01:32:35.089Z,15.90
2023-04-29T01:35:31.709Z,15.90
2023-04-29T01:38:11.684Z,15.90
2023-04-29T01:40:56.574Z,15.90
2023-04-29T01:43:33.814Z,15.90
2023-04-29T01:46:12.743Z,16.00
2023-04-29T01:48:42.303Z,16.00
2023-04-29T01:51:11.440Z,16.00
2023-04-29T01:53:42.143Z,16.00
2023-04-29T01:56:12.902Z,16.00
2023-04-29T01:58:50.264Z,16.00
2023-04-29T02:01:36.462Z,15.90
2023-04-29T02:04:06.084Z,15.90
2023-04-29T02:06:35.262Z,15.90
2023-04-29T02:09:06.502Z,15.90
2023-04-29T02:11:38.524Z,15.90
2023-04-29T02:14:07.960Z,15.80
2023-04-29T02:16:37.482Z,15.80
2023-04-29T02:19:09.566Z,15.70
2023-04-29T02:21:41.130Z,15.70
2023-04-29T02:24:10.260Z,15.70
2023-04-29T02:26:41.263Z,15.60
2023-04-29T02:29:10.357Z,15.60
2023-04-29T02:31:39.554Z,15.50
2023-04-29T02:34:08.669Z,15.50
2023-04-29T02:36:37.702Z,15.40
2023-04-29T02:39:06.711Z,15.40
2023-04-29T02:41:36.506Z,15.40
2023-04-29T02:44:07.230Z,15.40
2023-04-29T02:46:36.879Z,15.30
2023-04-29T02:49:06.270Z,15.30
2023-04-29T02:51:37.238Z,15.30
2023-04-29T02:54:06.810Z,15.30
2023-04-29T02:56:35.780Z,15.20
2023-04-29T02:59:06.405Z,15.20
2023-04-29T03:01:35.749Z,15.20
2023-04-29T03:04:05.318Z,15.20
2023-04-29T03:06:34.786Z,15.10
2023-04-29T03:09:04.946Z,15.10
2023-04-29T03:11:34.122Z,15.10
2023-04-29T03:14:04.246Z,15.00
2023-04-29T03:16:35.286Z,15.00
2023-04-29T03:19:04.759Z,15.00
2023-04-29T03:21:34.154Z,14.90
2023-04-29T03:24:03.221Z,14.90
2023-04-29T03:26:36.099Z,14.90
2023-04-29T03:29:06.846Z,14.90
2023-04-29T03:31:37.992Z,14.90
2023-04-29T03:34:07.449Z,14.90
2023-04-29T03:36:40.492Z,14.90
2023-04-29T03:39:11.996Z,14.90
2023-04-29T03:41:41.875Z,14.80
2023-04-29T03:44:11.460Z,14.80
2023-04-29T03:46:43.270Z,14.80
2023-04-29T03:49:12.678Z,14.80
2023-04-29T03:51:41.976Z,14.80
2023-04-29T03:54:16.642Z,14.70
2023-04-29T03:56:46.097Z,14.80
2023-04-29T03:59:15.547Z,14.80
2023-04-29T04:01:46.550Z,14.80
2023-04-29T04:04:15.963Z,14.70
2023-04-29T04:06:51.749Z,14.70
2023-04-29T04:09:23.648Z,14.70
2023-04-29T04:11:53.030Z,14.60
2023-04-29T04:14:22.664Z,14.60
2023-04-29T04:16:54.837Z,14.70
2023-04-29T04:19:24.715Z,14.60
2023-04-29T04:21:54.406Z,14.60
2023-04-29T04:24:24.422Z,14.60
2023-04-29T04:26:53.627Z,14.60
2023-04-29T04:29:36.782Z,14.60
2023-04-29T04:32:20.326Z,14.60
2023-04-29T04:34:49.596Z,14.60
2023-04-29T04:37:18.893Z,14.50
2023-04-29T04:39:53.985Z,14.50
2023-04-29T04:42:23.925Z,14.50
2023-04-29T04:44:54.963Z,14.50
2023-04-29T04:47:37.772Z,14.50
2023-04-29T04:50:14.589Z,14.50
2023-04-29T04:52:43.733Z,14.50
2023-04-29T04:55:26.057Z,14.50
2023-04-29T04:57:55.431Z,14.50
2023-04-29T05:00:24.926Z,14.60
2023-04-29T05:02:56.022Z,14.60
2023-04-29T05:05:25.975Z,14.60
2023-04-29T05:07:55.483Z,14.60
2023-04-29T05:10:33.362Z,14.60
2023-04-29T05:13:03.810Z,14.70
2023-04-29T05:15:33.037Z,14.60
2023-04-29T05:18:04.985Z,14.70
2023-04-29T05:20:34.688Z,14.70
2023-04-29T05:23:05.487Z,14.80
2023-04-29T05:25:39.575Z,14.80
2023-04-29T05:28:08.898Z,14.80
2023-04-29T05:30:40.528Z,14.80
2023-04-29T05:33:11.873Z,14.90
2023-04-29T05:35:41.827Z,14.90
2023-04-29T05:38:10.926Z,14.90
2023-04-29T05:40:50.032Z,15.00
2023-04-29T05:43:39.527Z,15.00
2023-04-29T05:46:08.931Z,15.10
2023-04-29T05:48:39.454Z,15.10
2023-04-29T05:51:08.572Z,15.10
2023-04-29T05:53:38.531Z,15.20
2023-04-29T05:56:08.417Z,15.20
2023-04-29T05:58:38.514Z,15.20
2023-04-29T06:01:07.520Z,15.30
2023-04-29T06:03:37.693Z,15.30
2023-04-29T06:06:27.658Z,15.40
2023-04-29T06:09:19.836Z,15.40
2023-04-29T06:11:56.379Z,15.40
2023-04-29T06:14:25.592Z,15.50
2023-04-29T06:16:55.771Z,15.50
2023-04-29T06:19:26.853Z,15.60
2023-04-29T06:21:58.725Z,15.60
2023-04-29T06:24:27.882Z,15.70
2023-04-29T06:26:57.121Z,15.70
2023-04-29T06:29:28.184Z,15.80
2023-04-29T06:31:57.588Z,15.80
2023-04-29T06:34:27.020Z,15.80
2023-04-29T06:37:16.311Z,15.90
2023-04-29T06:39:58.595Z,15.90
2023-04-29T06:42:52.394Z,15.90
2023-04-29T06:45:37.973Z,15.90
2023-04-29T06:48:18.988Z,16.00
2023-04-29T06:50:53.627Z,16.00
2023-04-29T06:53:25.229Z,16.00
2023-04-29T06:55:56.315Z,16.00
2023-04-29T06:58:25.487Z,16.10
2023-04-29T07:00:54.713Z,16.10
2023-04-29T07:03:25.025Z,16.20
2023-04-29T07:05:54.339Z,16.20
2023-04-29T07:08:25.259Z,16.20
2023-04-29T07:10:56.803Z,16.30
2023-04-29T07:13:26.596Z,16.30
2023-04-29T07:15:56.481Z,16.30
2023-04-29T07:18:26.184Z,16.40
2023-04-29T07:20:55.833Z,16.40
2023-04-29T07:23:26.527Z,16.50
2023-04-29T07:25:55.786Z,16.50
2023-04-29T07:28:25.298Z,16.50
2023-04-29T07:30:55.545Z,16.50
2023-04-29T07:33:25.564Z,16.50
2023-04-29T07:35:54.987Z,16.60
2023-04-29T07:38:26.254Z,16.60
2023-04-29T07:40:56.196Z,16.60
2023-04-29T07:43:26.229Z,16.60
2023-04-29T07:45:55.647Z,16.60
2023-04-29T07:48:25.076Z,16.70
2023-04-29T07:50:54.753Z,16.70
2023-04-29T07:53:26.681Z,16.70
2023-04-29T07:55:56.510Z,16.80
2023-04-29T07:58:29.446Z,16.80
2023-04-29T08:00:59.454Z,16.80
2023-04-29T08:03:29.384Z,16.80
2023-04-29T08:06:03.427Z,16.80
2023-04-29T08:08:34.446Z,16.90
2023-04-29T08:11:04.185Z,17.00
2023-04-29T08:13:33.372Z,17.00
2023-04-29T08:16:03.761Z,17.00
2023-04-29T08:18:32.889Z,17.10
2023-04-29T08:21:02.165Z,17.10
2023-04-29T08:23:31.834Z,17.10
2023-04-29T08:26:03.503Z,17.10
2023-04-29T08:28:33.118Z,17.20
2023-04-29T08:31:02.325Z,17.20
2023-04-29T08:33:31.567Z,17.20
2023-04-29T08:36:03.510Z,17.20
2023-04-29T08:38:32.672Z,17.30
2023-04-29T08:41:03.164Z,17.40
2023-04-29T08:43:33.802Z,17.40
2023-04-29T08:46:05.526Z,17.50
2023-04-29T08:48:36.194Z,17.50
2023-04-29T08:51:06.666Z,17.60
2023-04-29T08:53:36.958Z,17.70
2023-04-29T08:56:14.894Z,17.70
2023-04-29T08:58:45.312Z,17.80
2023-04-29T09:01:15.402Z,17.90
2023-04-29T09:03:52.838Z,17.90
2023-04-29T09:06:22.390Z,18.00
2023-04-29T09:08:51.782Z,18.00
2023-04-29T09:11:23.156Z,18.00
2023-04-29T09:13:52.462Z,18.10
2023-04-29T09:16:21.801Z,18.10
2023-04-29T09:18:57.046Z,18.10
2023-04-29T09:21:28.347Z,18.20
2023-04-29T09:23:58.570Z,18.20
2023-04-29T09:26:34.923Z,18.20
2023-04-29T09:29:16.300Z,18.30
2023-04-29T09:31:46.157Z,18.30
2023-04-29T09:34:16.445Z,18.30
2023-04-29T09:36:47.778Z,18.40
2023-04-29T09:39:18.588Z,18.40
2023-04-29T09:42:03.210Z,18.40
2023-04-29T09:44:35.889Z,18.40
2023-04-29T09:47:06.919Z,18.40
2023-04-29T09:49:38.810Z,18.40
2023-04-29T09:52:09.782Z,18.40
2023-04-29T09:54:40.808Z,18.40
2023-04-29T09:57:12.857Z,18.30
2023-04-29T09:59:43.577Z,18.30
2023-04-29T10:02:17.702Z,18.30
2023-04-29T10:04:49.192Z,18.20
2023-04-29T10:07:19.169Z,18.10
2023-04-29T10:09:49.216Z,17.90
2023-04-29T10:12:21.695Z,17.80
2023-04-29T10:14:59.216Z,17.60
2023-04-29T10:18:03.119Z,17.40
2023-04-29T10:20:32.564Z,17.20
2023-04-29T10:23:02.733Z,17.10
2023-04-29T10:25:32.580Z,17.00
2023-04-29T10:28:05.273Z,16.80
2023-04-29T10:30:36.780Z,16.80
2023-04-29T10:33:08.750Z,16.70
2023-04-29T10:35:38.261Z,16.60
2023-04-29T10:38:14.399Z,16.60
2023-04-29T10:40:46.857Z,16.60
2023-04-29T10:43:18.033Z,16.60
2023-04-29T10:45:47.175Z,16.60
2023-04-29T10:48:18.819Z,16.50
2023-04-29T10:51:03.435Z,16.50
2023-04-29T10:53:32.455Z,16.60
2023-04-29T10:56:07.219Z,16.60
2023-04-29T10:58:55.685Z,16.60
2023-04-29T11:01:45.877Z,16.70
2023-04-29T11:04:15.671Z,16.80
2023-04-29T11:06:49.756Z,16.80
2023-04-29T11:09:25.531Z,16.90
2023-04-29T11:12:00.596Z,17.00
2023-04-29T11:14:34.017Z,17.00
2023-04-29T11:17:05.019Z,17.10
2023-04-29T11:19:35.299Z,17.10
2023-04-29T11:22:15.899Z,17.20
2023-04-29T11:24:53.049Z,17.20
2023-04-29T11:27:27.811Z,17.20
2023-04-29T11:29:59.699Z,17.20
2023-04-29T11:32:31.048Z,17.20
2023-04-29T11:35:09.769Z,17.20
2023-04-29T11:37:40.452Z,17.20
2023-04-29T11:40:11.551Z,17.20
2023-04-29T11:42:46.586Z,17.30
2023-04-29T11:45:19.380Z,17.20
2023-04-29T11:47:49.986Z,17.30
2023-04-29T11:50:20.996Z,17.30
2023-04-29T11:52:50.913Z,17.30
2023-04-29T11:55:51.590Z,17.30
2023-04-29T11:58:22.452Z,17.40
2023-04-29T12:00:53.770Z,17.40
2023-04-29T12:03:23.230Z,17.50
2023-04-29T12:05:53.905Z,17.50
2023-04-29T12:08:23.697Z,17.60
2023-04-29T12:11:00.141Z,17.60
2023-04-29T12:13:40.053Z,17.70
2023-04-29T12:16:12.098Z,17.70
2023-04-29T12:18:42.122Z,17.90
2023-04-29T12:21:15.376Z,18.00
2023-04-29T12:23:50.577Z,18.00
2023-04-29T12:26:21.189Z,18.20
2023-04-29T12:28:55.015Z,18.20
2023-04-29T12:31:48.717Z,18.30
2023-04-29T12:34:36.927Z,18.40
2023-04-29T12:37:19.095Z,18.40
2023-04-29T12:39:55.287Z,18.50
2023-04-29T12:42:24.973Z,18.50
2023-04-29T12:44:54.312Z,18.50
2023-04-29T12:47:26.056Z,18.50
2023-04-29T12:50:06.257Z,18.60
2023-04-29T12:52:36.849Z,18.60
2023-04-29T12:55:07.055Z,18.60
2023-04-29T12:57:37.898Z,18.60
2023-04-29T13:00:12.595Z,18.60
2023-04-29T13:03:02.878Z,18.60
2023-04-29T13:05:32.646Z,18.60
2023-04-29T13:08:06.966Z,18.60
2023-04-29T13:10:39.276Z,18.60
2023-04-29T13:13:15.027Z,18.50
2023-04-29T13:15:44.878Z,18.50
2023-04-29T13:18:16.522Z,18.40
2023-04-29T13:20:45.874Z,18.40
2023-04-29T13:23:17.879Z,18.30
2023-04-29T13:25:49.749Z,18.30
2023-04-29T13:28:25.434Z,18.30
2023-04-29T13:30:55.061Z,18.30
2023-04-29T13:33:25.777Z,18.30
2023-04-29T13:35:55.187Z,18.30
2023-04-29T13:38:24.478Z,18.30
2023-04-29T13:40:55.189Z,18.30
2023-04-29T13:43:36.867Z,18.20
2023-04-29T13:46:09.161Z,18.20
2023-04-29T13:54:37.452Z,18.10
2023-04-29T14:02:21.381Z,18.00
2023-04-29T14:04:30.940Z,18.00
2023-04-29T14:07:00.294Z,17.90
2023-04-29T14:09:30.110Z,17.90
2023-04-29T14:11:59.330Z,17.80
2023-04-29T14:14:28.825Z,17.80
2023-04-29T14:16:58.555Z,17.80
2023-04-29T14:19:29.532Z,17.70
2023-04-29T14:21:59.489Z,17.70
2023-04-29T14:24:28.690Z,17.70
2023-04-29T14:26:58.019Z,17.70
2023-04-29T14:29:27.393Z,17.70
2023-04-29T14:32:03.968Z,17.70
2023-04-29T14:34:40.868Z,17.60
2023-04-29T14:37:12.169Z,17.60
2023-04-29T14:39:48.903Z,17.60
2023-04-29T14:42:20.973Z,17.60
2023-04-29T14:45:07.635Z,17.60
2023-04-29T14:47:37.519Z,17.60
2023-04-29T14:50:21.718Z,17.50
2023-04-29T14:52:57.921Z,17.50
2023-04-29T14:55:31.268Z,17.50
2023-04-29T14:58:14.418Z,17.50
2023-04-29T15:04:25.147Z,17.40
2023-04-29T15:06:58.862Z,17.50
2023-04-29T15:09:52.167Z,17.40
2023-04-29T15:12:30.734Z,17.50
2023-04-29T15:15:11.573Z,17.50
2023-04-29T15:17:57.907Z,17.40
2023-04-29T15:21:17.313Z,17.50
2023-04-29T15:23:47.926Z,17.40
2023-04-29T15:26:25.126Z,17.50
2023-04-29T15:29:03.456Z,17.50
2023-04-29T15:31:33.451Z,17.50
2023-04-29T15:34:15.718Z,17.50
2023-04-29T15:36:46.970Z,17.50
2023-04-29T15:40:13.105Z,17.50
2023-04-29T15:42:52.520Z,17.50
2023-04-29T15:45:28.230Z,17.50
2023-04-29T15:48:22.017Z,17.40
2023-04-29T15:50:56.260Z,17.40
2023-04-29T15:53:50.661Z,17.30
2023-04-29T15:56:37.005Z,17.20
2023-04-29T15:59:07.676Z,17.20
2023-04-29T16:01:37.376Z,17.10
2023-04-29T16:04:06.722Z,17.10
2023-04-29T16:06:36.071Z,17.10
2023-04-29T16:09:08.365Z,17.00
2023-04-29T16:11:53.486Z,17.00
2023-04-29T16:14:32.943Z,17.00
2023-04-29T16:17:03.189Z,17.00
2023-04-29T16:19:35.191Z,17.00
2023-04-29T16:22:09.229Z,16.90
2023-04-29T16:24:39.284Z,16.90
2023-04-29T16:27:08.296Z,16.90
2023-04-29T16:29:39.264Z,16.90
2023-04-29T16:32:08.592Z,16.90
2023-04-29T16:34:46.942Z,16.90
2023-04-29T16:37:20.774Z,16.90
2023-04-29T16:39:50.178Z,16.90
2023-04-29T16:42:22.472Z,16.80
2023-04-29T16:44:53.333Z,16.80
2023-04-29T16:47:23.728Z,16.80
2023-04-29T16:49:53.427Z,16.80
2023-04-29T16:52:22.897Z,16.80
2023-04-29T16:54:53.278Z,16.70
2023-04-29T16:57:26.501Z,16.70
2023-04-29T16:59:57.159Z,16.70
2023-04-29T17:02:26.350Z,16.70
2023-04-29T17:04:55.947Z,16.70
2023-04-29T17:07:25.614Z,16.60
2023-04-29T17:09:55.341Z,16.60
2023-04-29T17:12:25.408Z,16.60
2023-04-29T17:14:56.246Z,16.60
2023-04-29T17:17:25.648Z,16.60
2023-04-29T17:19:55.664Z,16.60
2023-04-29T17:22:25.303Z,16.60
2023-04-29T17:24:54.415Z,16.60
2023-04-29T17:27:23.736Z,16.60
2023-04-29T17:29:53.730Z,16.60
2023-04-29T17:32:28.646Z,16.60
2023-04-29T17:34:58.158Z,16.60
2023-04-29T17:37:27.450Z,16.50
2023-04-29T17:39:57.208Z,16.50
2023-04-29T17:42:26.752Z,16.50
2023-04-29T17:44:56.260Z,16.40
2023-04-29T17:47:27.271Z,16.40
2023-04-29T17:49:57.686Z,16.40
2023-04-29T17:52:28.356Z,16.40
2023-04-29T17:54:57.649Z,16.40
2023-04-29T17:57:28.587Z,16.40
2023-04-29T17:59:57.738Z,16.40
2023-04-29T18:02:28.148Z,16.30
2023-04-29T18:04:57.603Z,16.30
2023-04-29T18:07:26.804Z,16.30
2023-04-29T18:09:56.547Z,16.30
2023-04-29T18:12:26.376Z,16.20
2023-04-29T18:14:55.599Z,16.20
2023-04-29T18:17:24.458Z,16.20
2023-04-29T18:19:55.162Z,16.20
2023-04-29T18:22:24.772Z,16.20
2023-04-29T18:24:53.883Z,16.20
2023-04-29T18:27:23.163Z,16.20
2023-04-29T18:29:52.547Z,16.10
2023-04-29T18:32:22.018Z,16.10
2023-04-29T18:34:51.492Z,16.10
2023-04-29T18:37:22.183Z,16.10
2023-04-29T18:39:51.627Z,16.10
2023-04-29T18:42:21.321Z,16.00
2023-04-29T18:44:51.297Z,16.00
2023-04-29T18:47:20.432Z,16.00
2023-04-29T18:49:49.550Z,16.00
2023-04-29T18:52:19.132Z,16.00
2023-04-29T18:54:49.561Z,16.00
2023-04-29T18:57:18.888Z,16.00
2023-04-29T18:59:48.102Z,15.90
2023-04-29T19:02:17.420Z,15.90
2023-04-29T19:04:46.669Z,15.90
2023-04-29T19:07:16.240Z,15.90
2023-04-29T19:09:45.310Z,15.90
2023-04-29T19:12:15.906Z,15.80
2023-04-29T19:14:44.831Z,15.80
2023-04-29T19:17:14.196Z,15.80
2023-04-29T19:19:43.420Z,15.70
2023-04-29T19:22:12.813Z,15.70
2023-04-29T19:24:43.132Z,15.70
2023-04-29T19:27:12.374Z,15.70
2023-04-29T19:29:43.059Z,15.70
2023-04-29T19:32:12.444Z,15.60
2023-04-29T19:34:41.496Z,15.60
2023-04-29T19:37:10.651Z,15.60
2023-04-29T19:39:39.803Z,15.60
2023-04-29T19:42:09.081Z,15.60
2023-04-29T19:44:38.338Z,15.60
2023-04-29T19:47:09.097Z,15.60
2023-04-29T19:49:39.217Z,15.60
2023-04-29T19:52:09.012Z,15.60
2023-04-29T19:54:38.673Z,15.60
2023-04-29T19:57:08.000Z,15.60
2023-04-29T19:59:37.285Z,15.50
2023-04-29T20:02:08.386Z,15.50
2023-04-29T20:04:37.939Z,15.50
2023-04-29T20:07:07.132Z,15.50
2023-04-29T20:09:37.756Z,15.50
2023-04-29T20:12:07.165Z,15.50
2023-04-29T20:14:36.499Z,15.50
2023-04-29T20:17:06.218Z,15.50
2023-04-29T20:19:36.912Z,15.50
2023-04-29T20:22:06.084Z,15.50
2023-04-29T20:24:35.874Z,15.50
2023-04-29T20:27:05.665Z,15.50
2023-04-29T20:29:34.902Z,15.50
2023-04-29T20:32:05.956Z,15.50
2023-04-29T20:34:37.906Z,15.50
2023-04-29T20:37:07.883Z,15.50
2023-04-29T20:39:37.190Z,15.50
2023-04-29T20:42:06.527Z,15.50
2023-04-29T20:44:36.756Z,15.50
2023-04-29T20:47:06.025Z,15.40
2023-04-29T20:49:36.790Z,15.40
2023-04-29T20:52:07.399Z,15.40
2023-04-29T20:54:36.769Z,15.40
2023-04-29T20:57:06.166Z,15.40
2023-04-29T20:59:35.569Z,15.40
2023-04-29T21:02:05.008Z,15.40
2023-04-29T21:04:34.249Z,15.40
2023-04-29T21:07:05.704Z,15.40
2023-04-29T21:09:35.747Z,15.30
2023-04-29T21:12:06.157Z,15.30
2023-04-29T21:14:36.381Z,15.30
2023-04-29T21:17:05.583Z,15.30
2023-04-29T21:19:36.242Z,15.30
2023-04-29T21:22:06.697Z,15.30
2023-04-29T21:24:36.074Z,15.30
2023-04-29T21:27:05.381Z,15.30
2023-04-29T21:29:40.545Z,15.30
2023-04-29T21:32:09.970Z,15.30
2023-04-29T21:34:39.278Z,15.30
2023-04-29T21:37:09.909Z,15.30
2023-04-29T21:39:38.871Z,15.30
2023-04-29T21:42:08.551Z,15.30
2023-04-29T21:44:38.932Z,15.20
2023-04-29T21:47:08.839Z,15.20
2023-04-29T21:49:38.298Z,15.20
2023-04-29T21:52:09.088Z,15.20
2023-04-29T21:54:38.430Z,15.20
2023-04-29T21:57:08.249Z,15.10
2023-04-29T21:59:37.410Z,15.10
2023-04-29T22:02:14.751Z,15.10
2023-04-29T22:04:44.227Z,15.10
2023-04-29T22:07:14.639Z,15.10
2023-04-29T22:09:47.138Z,15.10
2023-04-29T22:12:17.134Z,15.10
2023-04-29T22:14:46.858Z,15.10
2023-04-29T22:17:16.000Z,15.00
2023-04-29T22:19:45.236Z,15.00
2023-04-29T22:22:15.741Z,15.00
2023-04-29T22:24:44.723Z,15.00
2023-04-29T22:27:13.769Z,15.00
2023-04-29T22:29:43.161Z,15.00
2023-04-29T22:32:13.364Z,15.00
2023-04-29T22:34:43.174Z,15.00
2023-04-29T22:37:12.137Z,14.90
2023-04-29T22:39:43.402Z,14.90
2023-04-29T22:42:12.724Z,14.90
2023-04-29T22:44:41.835Z,14.90
2023-04-29T22:47:11.020Z,14.90
2023-04-29T22:49:40.912Z,14.80
2023-04-29T22:52:10.287Z,14.80
2023-04-29T22:54:40.208Z,14.80
2023-04-29T22:57:13.304Z,14.80
2023-04-29T22:59:42.416Z,14.80
2023-04-29T23:02:12.015Z,14.80
2023-04-29T23:04:41.340Z,14.80
2023-04-29T23:07:10.690Z,14.80
2023-04-29T23:09:40.396Z,14.80
2023-04-29T23:12:10.977Z,14.80
2023-04-29T23:14:41.148Z,14.70
2023-04-29T23:17:10.744Z,14.70
2023-04-29T23:19:40.234Z,14.70
2023-04-29T23:22:09.421Z,14.70
2023-04-29T23:24:40.282Z,14.70
2023-04-29T23:27:10.749Z,14.70
2023-04-29T23:29:41.515Z,14.70
2023-04-29T23:32:10.841Z,14.70
2023-04-29T23:34:40.028Z,14.60
2023-04-29T23:37:09.461Z,14.60
2023-04-29T23:39:39.115Z,14.60
2023-04-29T23:42:08.606Z,14.60
2023-04-29T23:44:39.870Z,14.60
2023-04-29T23:47:09.283Z,14.60
2023-04-29T23:49:38.545Z,14.60
2023-04-29T23:52:10.372Z,14.60
2023-04-29T23:54:39.746Z,14.50
2023-04-29T23:57:09.092Z,14.50
2023-04-29T23:59:40.125Z,14.50
